Terminal Aerodrome Forecast
Issued by NWS

Home | Current Version | Previous Version | Text Only | Print | Product List | Glossary On
Versions: 1 2 3 4 5 6 7 8 9 10 11 12 13 14 15
000
FTUS46 KMTR 172300
TAFSJC
TAF
KSJC 172332Z 1800/1824 32010KT P6SM SKC
     FM180400 VRB03KT P6SM SCT200
     FM180800 15011KT P6SM VCSH BKN020 OVC050
     FM181800 19009KT P6SM -SHRA OVC030=

USA.gov is the U.S. government's official web portal to all federal, state and local government web resources and services.